createdAt,value
2023-01-19T00:00:28.450Z,95533.66
2023-01-19T00:01:30.271Z,95532.66
2023-01-19T00:02:32.344Z,95537.63
2023-01-19T00:03:35.213Z,95538.84
2023-01-19T00:04:37.111Z,95540.88
2023-01-19T00:05:38.853Z,95544.66
2023-01-19T00:06:40.706Z,95539.16
2023-01-19T00:07:42.447Z,95546.69
2023-01-19T00:08:46.091Z,95547.31
2023-01-19T00:09:47.965Z,95537.78
2023-01-19T00:10:53.083Z,95546.91
2023-01-19T00:11:55.001Z,95542.38
2023-01-19T00:12:56.823Z,95548.94
2023-01-19T00:13:59.185Z,95543.97
2023-01-19T00:15:00.968Z,95552.84
2023-01-19T00:16:02.960Z,95548.69
2023-01-19T00:17:04.759Z,95550.91
2023-01-19T00:18:07.335Z,95551.72
2023-01-19T00:19:09.755Z,95551.09
2023-01-19T00:20:11.857Z,95548.88
2023-01-19T00:21:16.854Z,95554.41
2023-01-19T00:22:18.711Z,95544.13
2023-01-19T00:23:21.400Z,95552.25
2023-01-19T00:24:23.217Z,95558.81
2023-01-19T00:25:25.159Z,95551.28
2023-01-19T00:26:27.092Z,95557.22
2023-01-19T00:27:30.902Z,95562.94
2023-01-19T00:28:32.699Z,95557.34
2023-01-19T00:29:34.627Z,95558.72
2023-01-19T00:30:36.597Z,95559.88
2023-01-19T00:31:38.516Z,95557.13
2023-01-19T00:32:40.394Z,95555.34
2023-01-19T00:33:42.191Z,95558.34
2023-01-19T00:34:49.745Z,95545.69
2023-01-19T00:35:53.384Z,95543.91
2023-01-19T00:36:55.196Z,95555.38
2023-01-19T00:37:58.035Z,95549.28
2023-01-19T00:38:59.902Z,95556.44
2023-01-19T00:40:01.655Z,95557.03
2023-01-19T00:41:03.440Z,95561.63
2023-01-19T00:42:23.609Z,95557.88
2023-01-19T00:43:25.486Z,95552.53
2023-01-19T00:44:27.230Z,95549.34
2023-01-19T00:45:29.081Z,95558.09
2023-01-19T00:46:30.969Z,95554.69
2023-01-19T00:47:33.606Z,95556.88
2023-01-19T00:48:35.579Z,95557.47
2023-01-19T00:49:37.464Z,95556.47
2023-01-19T00:50:39.226Z,95553.91
2023-01-19T00:51:41.087Z,95555.25
2023-01-19T00:52:43.517Z,95554.66
2023-01-19T00:53:45.385Z,95556.44
2023-01-19T00:54:47.302Z,95555.63
2023-01-19T00:55:49.107Z,95558.00
2023-01-19T00:56:51.125Z,95553.25
2023-01-19T00:57:52.909Z,95552.63
2023-01-19T00:58:54.949Z,95552.06
2023-01-19T00:59:56.984Z,95559.63
2023-01-19T01:01:03.899Z,95561.19
2023-01-19T01:02:06.226Z,95559.22
2023-01-19T01:03:08.292Z,95563.22
2023-01-19T01:04:12.524Z,95563.63
2023-01-19T01:05:14.544Z,95560.88
2023-01-19T01:06:16.289Z,95561.66
2023-01-19T01:07:18.129Z,95560.88
2023-01-19T01:08:19.912Z,95563.28
2023-01-19T01:09:21.756Z,95566.63
2023-01-19T01:10:25.479Z,95564.50
2023-01-19T01:11:27.273Z,95562.88
2023-01-19T01:12:29.073Z,95564.66
2023-01-19T01:13:31.116Z,95565.66
2023-01-19T01:14:33.267Z,95563.09
2023-01-19T01:15:35.107Z,95575.75
2023-01-19T01:16:36.971Z,95570.63
2023-01-19T01:17:46.855Z,95565.84
2023-01-19T01:18:48.623Z,95575.16
2023-01-19T01:19:50.752Z,95574.19
2023-01-19T01:20:54.568Z,95577.72
2023-01-19T01:21:58.004Z,95583.09
2023-01-19T01:23:00.333Z,95578.91
2023-01-19T01:24:02.422Z,95577.13
2023-01-19T01:25:04.302Z,95580.88
2023-01-19T01:26:06.058Z,95580.09
2023-01-19T01:27:08.515Z,95580.69
2023-01-19T01:28:10.389Z,95576.94
2023-01-19T01:29:12.826Z,95574.19
2023-01-19T01:30:15.257Z,95585.47
2023-01-19T01:31:17.098Z,95581.13
2023-01-19T01:32:18.920Z,95579.16
2023-01-19T01:33:41.143Z,95584.94
2023-01-19T01:34:42.805Z,95591.03
2023-01-19T01:35:44.607Z,95576.34
2023-01-19T01:36:46.364Z,95580.25
2023-01-19T01:37:48.075Z,95581.88
2023-01-19T01:38:49.964Z,95578.31
2023-01-19T01:39:51.816Z,95575.53
2023-01-19T01:40:53.669Z,95576.34
2023-01-19T01:41:57.454Z,95576.34
2023-01-19T01:42:59.805Z,95583.28
2023-01-19T01:44:08.683Z,95577.94
2023-01-19T01:45:28.945Z,95584.84
2023-01-19T01:46:32.207Z,95589.03
2023-01-19T01:47:38.523Z,95590.63
2023-01-19T01:48:41.352Z,95589.47
2023-01-19T01:49:43.593Z,95596.81
2023-01-19T01:51:08.177Z,95586.72
2023-01-19T01:52:10.457Z,95591.47
2023-01-19T01:53:14.629Z,95585.53
2023-01-19T01:54:17.378Z,95589.69
2023-01-19T01:55:21.233Z,95590.69
2023-01-19T01:56:26.347Z,95590.50
2023-01-19T01:57:28.284Z,95588.91
2023-01-19T01:58:30.931Z,95592.25
2023-01-19T01:59:40.486Z,95583.56
2023-01-19T02:01:01.150Z,95580.81
2023-01-19T02:02:23.081Z,95568.72
2023-01-19T02:03:26.003Z,95581.22
2023-01-19T02:04:28.473Z,95576.06
2023-01-19T02:05:33.778Z,95569.69
2023-01-19T02:06:54.624Z,95573.63
2023-01-19T02:08:33.790Z,95573.81
2023-01-19T02:09:55.403Z,95575.22
2023-01-19T02:11:17.009Z,95579.59
2023-01-19T02:12:37.176Z,95578.78
2023-01-19T02:13:40.707Z,95576.41
2023-01-19T02:14:42.439Z,95577.72
2023-01-19T02:15:44.341Z,95579.09
2023-01-19T02:16:46.749Z,95576.34
2023-01-19T02:17:48.825Z,95575.13
2023-01-19T02:18:50.803Z,95575.72
2023-01-19T02:19:52.628Z,95570.22
2023-01-19T02:20:54.381Z,95575.38
2023-01-19T02:22:08.308Z,95566.03
2023-01-19T02:23:15.971Z,95572.53
2023-01-19T02:24:18.062Z,95568.13
2023-01-19T02:25:20.692Z,95564.38
2023-01-19T02:26:24.875Z,95567.78
2023-01-19T02:27:26.676Z,95566.16
2023-01-19T02:28:28.908Z,95553.25
2023-01-19T02:29:30.834Z,95563.97
2023-01-19T02:30:33.497Z,95561.63
2023-01-19T02:31:37.511Z,95559.22
2023-01-19T02:32:39.467Z,95561.63
2023-01-19T02:33:42.051Z,95562.41
2023-01-19T02:34:43.851Z,95561.44
2023-01-19T02:35:46.273Z,95573.53
2023-01-19T02:36:50.722Z,95581.25
2023-01-19T02:37:53.415Z,95576.72
2023-01-19T02:39:00.518Z,95577.06
2023-01-19T02:40:03.148Z,95586.41
2023-01-19T02:41:06.608Z,95587.03
2023-01-19T02:42:26.694Z,95594.13
2023-01-19T02:43:30.316Z,95598.88
2023-01-19T02:44:33.699Z,95598.25
2023-01-19T02:45:37.819Z,95601.19
2023-01-19T02:46:41.304Z,95592.31
2023-01-19T02:47:47.342Z,95597.25
2023-01-19T02:48:49.263Z,95601.25
2023-01-19T02:49:57.252Z,95601.88
2023-01-19T02:51:04.417Z,95594.31
2023-01-19T02:52:06.232Z,95598.25
2023-01-19T02:53:31.235Z,95594.50
2023-01-19T02:54:35.720Z,95594.94
2023-01-19T02:55:38.481Z,95592.53
2023-01-19T02:56:46.921Z,95594.88
2023-01-19T02:57:51.434Z,95592.00
2023-01-19T02:59:13.445Z,95593.59
2023-01-19T03:00:15.288Z,95601.31
2023-01-19T03:01:24.226Z,95599.13
2023-01-19T03:02:35.660Z,95595.13
2023-01-19T03:03:50.036Z,95592.34
2023-01-19T03:05:05.019Z,95584.75
2023-01-19T03:06:10.384Z,95584.72
2023-01-19T03:07:15.113Z,95582.38
2023-01-19T03:08:38.391Z,95584.41
2023-01-19T03:09:41.831Z,95590.34
2023-01-19T03:10:53.591Z,95593.09
2023-01-19T03:12:03.946Z,95584.44
2023-01-19T03:13:11.364Z,95577.47
2023-01-19T03:14:15.239Z,95579.69
2023-01-19T03:15:23.737Z,95584.09
2023-01-19T03:16:32.637Z,95585.31
2023-01-19T03:17:35.336Z,95583.97
2023-01-19T03:18:38.489Z,95586.16
2023-01-19T03:19:41.863Z,95586.59
2023-01-19T03:20:44.491Z,95584.47
2023-01-19T03:21:48.425Z,95591.63
2023-01-19T03:22:54.199Z,95602.53
2023-01-19T03:23:58.936Z,95598.13
2023-01-19T03:25:01.921Z,95598.31
2023-01-19T03:26:05.498Z,95596.38
2023-01-19T03:27:16.742Z,95605.50
2023-01-19T03:28:20.962Z,95597.72
2023-01-19T03:29:22.846Z,95603.56
2023-01-19T03:30:27.383Z,95605.66
2023-01-19T03:31:30.886Z,95598.50
2023-01-19T03:32:36.488Z,95598.59
2023-01-19T03:33:40.772Z,95593.63
2023-01-19T03:34:43.612Z,95598.44
2023-01-19T03:35:49.358Z,95601.44
2023-01-19T03:36:54.269Z,95601.97
2023-01-19T03:37:58.470Z,95605.16
2023-01-19T03:39:02.153Z,95614.66
2023-01-19T03:40:04.093Z,95612.19
2023-01-19T03:41:08.739Z,95614.16
2023-01-19T03:42:14.399Z,95616.72
2023-01-19T03:43:17.084Z,95620.72
2023-01-19T03:44:18.936Z,95619.91
2023-01-19T03:45:22.260Z,95620.47
2023-01-19T03:46:25.395Z,95624.63
2023-01-19T03:47:27.781Z,95618.31
2023-01-19T03:48:29.612Z,95619.38
2023-01-19T03:49:32.112Z,95625.75
2023-01-19T03:50:33.994Z,95621.22
2023-01-19T03:51:37.734Z,95626.38
2023-01-19T03:52:39.646Z,95624.59
2023-01-19T03:53:42.116Z,95625.75
2023-01-19T03:54:44.037Z,95630.28
2023-01-19T03:55:47.584Z,95628.31
2023-01-19T03:56:49.395Z,95626.97
2023-01-19T03:57:51.233Z,95623.00
2023-01-19T03:58:53.514Z,95626.56
2023-01-19T03:59:57.103Z,95623.00
2023-01-19T04:00:58.904Z,95628.41
2023-01-19T04:02:00.802Z,95634.78
2023-01-19T04:03:06.891Z,95632.84
2023-01-19T04:04:08.849Z,95632.44
2023-01-19T04:05:10.719Z,95625.34
2023-01-19T04:06:12.514Z,95637.25
2023-01-19T04:07:14.399Z,95640.13
2023-01-19T04:08:16.236Z,95630.91
2023-01-19T04:09:19.445Z,95635.44
2023-01-19T04:10:22.350Z,95642.34
2023-01-19T04:11:24.245Z,95643.97
2023-01-19T04:12:26.042Z,95649.91
2023-01-19T04:13:31.189Z,95646.28
2023-01-19T04:14:33.146Z,95655.41
2023-01-19T04:15:34.968Z,95653.44
2023-01-19T04:16:36.815Z,95648.91
2023-01-19T04:17:39.478Z,95650.25
2023-01-19T04:18:41.507Z,95651.50
2023-01-19T04:19:43.864Z,95650.53
2023-01-19T04:20:45.715Z,95657.88
2023-01-19T04:21:51.133Z,95646.97
2023-01-19T04:22:52.975Z,95651.50
2023-01-19T04:23:54.845Z,95645.72
2023-01-19T04:24:56.845Z,95640.41
2023-01-19T04:25:59.259Z,95647.16
2023-01-19T04:27:01.153Z,95650.53
2023-01-19T04:28:02.943Z,95652.72
2023-01-19T04:29:04.759Z,95649.34
2023-01-19T04:30:07.108Z,95650.75
2023-01-19T04:31:09.066Z,95647.03
2023-01-19T04:32:10.983Z,95649.41
2023-01-19T04:33:12.885Z,95653.44
2023-01-19T04:34:14.675Z,95656.41
2023-01-19T04:35:17.581Z,95654.44
2023-01-19T04:36:19.339Z,95660.41
2023-01-19T04:37:21.121Z,95657.63
2023-01-19T04:38:24.137Z,95657.63
2023-01-19T04:39:26.084Z,95662.63
2023-01-19T04:40:27.951Z,95658.88
2023-01-19T04:41:31.099Z,95660.31
2023-01-19T04:42:33.056Z,95664.47
2023-01-19T04:43:34.844Z,95668.19
2023-01-19T04:44:36.685Z,95669.16
2023-01-19T04:45:38.631Z,95663.66
2023-01-19T04:46:40.505Z,95669.59
2023-01-19T04:47:45.403Z,95663.16
2023-01-19T04:48:47.271Z,95658.56
2023-01-19T04:49:49.089Z,95667.63
2023-01-19T04:50:51.475Z,95669.94
2023-01-19T04:51:53.969Z,95664.19
2023-01-19T04:52:55.743Z,95666.19
2023-01-19T04:53:58.011Z,95665.47
2023-01-19T04:54:59.798Z,95671.25
2023-01-19T04:56:01.703Z,95669.28
2023-01-19T04:57:03.610Z,95670.72
2023-01-19T04:58:05.591Z,95666.34
2023-01-19T04:59:07.469Z,95664.56
2023-01-19T05:00:10.278Z,95659.25
2023-01-19T05:01:12.184Z,95662.44
2023-01-19T05:02:14.078Z,95660.81
2023-01-19T05:03:16.009Z,95664.13
2023-01-19T05:04:17.872Z,95668.50
2023-01-19T05:05:19.903Z,95666.53
2023-01-19T05:06:21.783Z,95663.16
2023-01-19T05:07:23.631Z,95662.00
2023-01-19T05:08:25.501Z,95660.03
2023-01-19T05:09:27.733Z,95660.03
2023-01-19T05:10:29.536Z,95658.47
2023-01-19T05:11:31.320Z,95660.22
2023-01-19T05:12:33.431Z,95663.78
2023-01-19T05:13:35.295Z,95669.56
2023-01-19T05:14:37.143Z,95668.56
2023-01-19T05:15:38.904Z,95670.00
2023-01-19T05:16:40.726Z,95673.00
2023-01-19T05:17:43.198Z,95673.63
2023-01-19T05:18:45.054Z,95672.00
2023-01-19T05:19:48.035Z,95673.97
2023-01-19T05:20:49.940Z,95676.47
2023-01-19T05:21:52.056Z,95677.38
2023-01-19T05:22:53.990Z,95675.97
2023-01-19T05:23:55.760Z,95679.50
2023-01-19T05:24:57.625Z,95677.94
2023-01-19T05:26:01.367Z,95674.75
2023-01-19T05:27:03.316Z,95679.28
2023-01-19T05:28:05.200Z,95679.44
2023-01-19T05:29:07.325Z,95679.44
2023-01-19T05:30:09.531Z,95686.19
2023-01-19T05:31:11.485Z,95689.75
2023-01-19T05:32:13.947Z,95695.84
2023-01-19T05:33:15.885Z,95686.56
2023-01-19T05:34:17.778Z,95693.09
2023-01-19T05:35:27.789Z,95695.50
2023-01-19T05:36:33.517Z,95692.66
2023-01-19T05:37:35.400Z,95697.47
2023-01-19T05:38:37.407Z,95698.28
2023-01-19T05:39:39.231Z,95702.44
2023-01-19T05:40:41.029Z,95708.84
2023-01-19T05:41:43.830Z,95705.91
2023-01-19T05:42:45.682Z,95706.09
2023-01-19T05:43:47.560Z,95712.63
2023-01-19T05:44:49.669Z,95709.28
2023-01-19T05:45:51.831Z,95714.41
2023-01-19T05:46:53.627Z,95714.41
2023-01-19T05:47:55.379Z,95713.25
2023-01-19T05:48:57.300Z,95711.31
2023-01-19T05:49:59.082Z,95714.69
2023-01-19T05:51:01.695Z,95709.34
2023-01-19T05:52:03.567Z,95712.91
2023-01-19T05:53:05.354Z,95711.13
2023-01-19T05:54:08.273Z,95712.13
2023-01-19T05:55:10.243Z,95706.34
2023-01-19T05:56:12.081Z,95701.38
2023-01-19T05:57:14.894Z,95708.31
2023-01-19T05:58:17.183Z,95711.56
2023-01-19T05:59:24.468Z,95706.97
2023-01-19T06:00:27.978Z,95708.13
2023-01-19T06:01:29.911Z,95704.94
2023-01-19T06:02:31.763Z,95710.25
2023-01-19T06:03:34.091Z,95706.28
2023-01-19T06:04:35.958Z,95703.88
2023-01-19T06:05:39.887Z,95707.78
2023-01-19T06:06:41.732Z,95710.53
2023-01-19T06:07:43.551Z,95716.50
2023-01-19T06:08:46.145Z,95718.69
2023-01-19T06:09:47.970Z,95721.09
2023-01-19T06:10:49.840Z,95724.00
2023-01-19T06:11:54.385Z,95726.88
2023-01-19T06:12:56.104Z,95727.66
2023-01-19T06:13:57.860Z,95720.75
2023-01-19T06:14:59.665Z,95735.00
2023-01-19T06:16:02.025Z,95732.09
2023-01-19T06:17:06.261Z,95727.13
2023-01-19T06:18:08.066Z,95726.34
2023-01-19T06:19:10.029Z,95733.25
2023-01-19T06:20:14.186Z,95729.44
2023-01-19T06:21:16.162Z,95726.59
2023-01-19T06:22:17.919Z,95737.69
2023-01-19T06:23:21.341Z,95737.69
2023-01-19T06:24:23.428Z,95740.25
2023-01-19T06:25:26.468Z,95737.22
2023-01-19T06:26:28.413Z,95740.00
2023-01-19T06:27:30.356Z,95742.72
2023-01-19T06:28:32.272Z,95736.59
2023-01-19T06:29:34.187Z,95750.28
2023-01-19T06:30:36.032Z,95744.31
2023-01-19T06:31:38.241Z,95747.50
2023-01-19T06:32:40.110Z,95744.94
2023-01-19T06:33:41.936Z,95745.13
2023-01-19T06:34:44.094Z,95740.78
2023-01-19T06:35:46.985Z,95744.94
2023-01-19T06:36:49.078Z,95748.50
2023-01-19T06:37:51.386Z,95749.91
2023-01-19T06:38:53.188Z,95746.56
2023-01-19T06:39:54.999Z,95752.66
2023-01-19T06:40:58.960Z,95742.56
2023-01-19T06:42:00.904Z,95740.00
2023-01-19T06:43:03.052Z,95743.53
2023-01-19T06:44:05.763Z,95742.13
2023-01-19T06:45:09.453Z,95750.16
2023-01-19T06:46:11.432Z,95748.84
2023-01-19T06:47:14.544Z,95750.63
2023-01-19T06:48:18.001Z,95745.03
2023-01-19T06:49:19.894Z,95740.69
2023-01-19T06:50:21.810Z,95744.69
2023-01-19T06:51:24.084Z,95745.66
2023-01-19T06:52:25.994Z,95745.03
2023-01-19T06:53:28.581Z,95739.09
2023-01-19T06:54:30.498Z,95750.16
2023-01-19T06:55:32.344Z,95749.19
2023-01-19T06:56:34.295Z,95748.22
2023-01-19T06:57:38.792Z,95747.97
2023-01-19T06:58:42.363Z,95753.09
2023-01-19T06:59:44.204Z,95745.72
2023-01-19T07:00:46.103Z,95744.13
2023-01-19T07:01:48.043Z,95745.56
2023-01-19T07:02:49.928Z,95750.53
2023-01-19T07:03:51.843Z,95745.09
2023-01-19T07:04:53.706Z,95750.06
2023-01-19T07:05:57.067Z,95745.72
2023-01-19T07:06:58.858Z,95745.56
2023-01-19T07:08:00.732Z,95746.97
2023-01-19T07:09:07.212Z,95747.59
2023-01-19T07:10:10.119Z,95752.56
2023-01-19T07:11:25.673Z,95752.56
2023-01-19T07:12:34.233Z,95752.56
2023-01-19T07:13:37.457Z,95762.69
2023-01-19T07:14:39.415Z,95759.50
2023-01-19T07:15:41.421Z,95763.03
2023-01-19T07:16:43.322Z,95761.78
2023-01-19T07:17:45.418Z,95767.91
2023-01-19T07:18:48.567Z,95764.34
2023-01-19T07:19:50.437Z,95770.75
2023-01-19T07:20:52.383Z,95774.75
2023-01-19T07:21:54.178Z,95775.53
2023-01-19T07:22:59.182Z,95774.56
2023-01-19T07:24:01.275Z,95775.19
2023-01-19T07:25:03.099Z,95786.72
2023-01-19T07:26:05.075Z,95784.13
2023-01-19T07:27:06.975Z,95778.50
2023-01-19T07:28:09.661Z,95776.53
2023-01-19T07:29:11.410Z,95766.88
2023-01-19T07:30:14.024Z,95772.81
2023-01-19T07:31:16.849Z,95775.75
2023-01-19T07:32:18.771Z,95773.69
2023-01-19T07:33:22.406Z,95775.81
2023-01-19T07:34:24.178Z,95777.13
2023-01-19T07:35:26.086Z,95780.31
2023-01-19T07:36:27.994Z,95780.78
2023-01-19T07:37:29.811Z,95785.13
2023-01-19T07:38:31.882Z,95783.19
2023-01-19T07:39:33.695Z,95783.50
2023-01-19T07:40:35.512Z,95785.47
2023-01-19T07:41:37.419Z,95795.22
2023-01-19T07:42:39.213Z,95786.88
2023-01-19T07:43:41.096Z,95786.38
2023-01-19T07:44:43.016Z,95788.75
2023-01-19T07:45:45.557Z,95788.75
2023-01-19T07:46:47.433Z,95778.44
2023-01-19T07:47:50.088Z,95785.38
2023-01-19T07:48:52.191Z,95781.03
2023-01-19T07:49:54.001Z,95780.59
2023-01-19T07:51:18.348Z,95779.44
2023-01-19T07:52:20.178Z,95782.00
2023-01-19T07:53:22.724Z,95780.22
2023-01-19T07:54:24.617Z,95784.22
2023-01-19T07:55:26.496Z,95784.22
2023-01-19T07:56:32.738Z,95785.03
2023-01-19T07:57:35.985Z,95788.81
2023-01-19T07:58:37.907Z,95793.63
2023-01-19T07:59:39.766Z,95786.16
2023-01-19T08:00:41.737Z,95791.16
2023-01-19T08:01:43.585Z,95794.72
2023-01-19T08:02:45.556Z,95794.88
2023-01-19T08:03:51.086Z,95795.66
2023-01-19T08:04:52.881Z,95794.88
2023-01-19T08:05:55.006Z,95797.06
2023-01-19T08:06:56.944Z,95796.28
2023-01-19T08:07:59.355Z,95795.81
2023-01-19T08:09:01.316Z,95801.59
2023-01-19T08:10:03.092Z,95805.00
2023-01-19T08:11:05.068Z,95800.28
2023-01-19T08:12:06.890Z,95806.41
2023-01-19T08:13:08.742Z,95807.56
2023-01-19T08:14:10.670Z,95814.47
2023-01-19T08:15:12.497Z,95813.66
2023-01-19T08:16:14.342Z,95812.25
2023-01-19T08:17:16.229Z,95811.25
2023-01-19T08:18:19.012Z,95819.97
2023-01-19T08:19:20.850Z,95815.44
2023-01-19T08:20:23.519Z,95821.03
2023-01-19T08:21:25.831Z,95826.06
2023-01-19T08:22:27.932Z,95817.91
2023-01-19T08:23:30.213Z,95830.41
2023-01-19T08:24:33.019Z,95824.56
2023-01-19T08:25:39.461Z,95828.94
2023-01-19T08:26:41.330Z,95824.41
2023-01-19T08:27:43.191Z,95834.69
2023-01-19T08:28:45.077Z,95838.69
2023-01-19T08:29:47.064Z,95838.53
2023-01-19T08:30:54.600Z,95848.81
2023-01-19T08:32:01.144Z,95842.88
2023-01-19T08:33:08.387Z,95845.88
2023-01-19T08:34:10.318Z,95842.97
2023-01-19T08:35:12.089Z,95846.50
2023-01-19T08:36:13.965Z,95849.72
2023-01-19T08:37:15.725Z,95850.34
2023-01-19T08:38:17.873Z,95856.44
2023-01-19T08:39:19.791Z,95866.75
2023-01-19T08:40:21.640Z,95861.59
2023-01-19T08:41:23.502Z,95858.41
2023-01-19T08:42:25.289Z,95856.97
2023-01-19T08:43:27.026Z,95855.38
2023-01-19T08:44:28.919Z,95856.78
2023-01-19T08:45:31.577Z,95861.13
2023-01-19T08:46:33.468Z,95865.16
2023-01-19T08:47:35.371Z,95858.41
2023-01-19T08:48:39.687Z,95864.34
2023-01-19T08:49:41.733Z,95869.31
2023-01-19T08:50:45.955Z,95869.31
2023-01-19T08:51:49.477Z,95869.31
2023-01-19T08:52:51.296Z,95869.16
2023-01-19T08:53:53.161Z,95869.31
2023-01-19T08:54:55.128Z,95864.78
2023-01-19T08:55:57.828Z,95870.31
2023-01-19T08:56:59.667Z,95869.03
2023-01-19T08:58:02.504Z,95871.78
2023-01-19T09:00:27.567Z,95878.34
2023-01-19T09:01:29.433Z,95873.84
2023-01-19T09:02:31.361Z,95869.47
2023-01-19T09:03:33.192Z,95871.88
2023-01-19T09:04:35.734Z,95879.28
2023-01-19T09:05:39.115Z,95883.44
2023-01-19T09:06:40.959Z,95875.19
2023-01-19T09:07:44.128Z,95880.94
2023-01-19T09:08:46.485Z,95881.16
2023-01-19T09:09:48.324Z,95884.84
2023-01-19T09:10:51.171Z,95884.75
2023-01-19T09:11:54.236Z,95888.56
2023-01-19T09:12:56.106Z,95890.53
2023-01-19T09:13:57.853Z,95882.81
2023-01-19T09:14:59.574Z,95883.78
2023-01-19T09:16:03.748Z,95884.91
2023-01-19T09:17:07.218Z,95888.94
2023-01-19T09:18:10.606Z,95880.84
2023-01-19T09:19:14.268Z,95888.25
2023-01-19T09:20:16.113Z,95881.03
2023-01-19T09:21:19.007Z,95893.72
2023-01-19T09:22:20.935Z,95898.25
2023-01-19T09:23:22.908Z,95894.50
2023-01-19T09:24:24.888Z,95900.13
2023-01-19T09:25:27.171Z,95903.31
2023-01-19T09:26:29.244Z,95906.50
2023-01-19T09:27:31.489Z,95903.94
2023-01-19T09:28:33.869Z,95910.69
2023-01-19T09:29:36.702Z,95912.44
2023-01-19T09:30:39.610Z,95903.31
2023-01-19T09:31:41.557Z,95905.88
2023-01-19T09:32:43.429Z,95912.03
2023-01-19T09:33:45.361Z,95914.94
2023-01-19T09:34:47.306Z,95905.44
2023-01-19T09:35:49.699Z,95912.72
2023-01-19T09:36:54.427Z,95909.31
2023-01-19T09:37:56.176Z,95908.53
2023-01-19T09:38:58.104Z,95908.00
2023-01-19T09:39:59.907Z,95916.72
2023-01-19T09:41:01.896Z,95910.94
2023-01-19T09:42:07.406Z,95906.31
2023-01-19T09:43:15.106Z,95915.78
2023-01-19T09:44:20.438Z,95905.66
2023-01-19T09:45:31.385Z,95910.38
2023-01-19T09:46:33.440Z,95907.34
2023-01-19T09:47:35.952Z,95912.19
2023-01-19T09:48:58.664Z,95910.44
2023-01-19T09:50:03.457Z,95899.94
2023-01-19T09:51:08.781Z,95902.72
2023-01-19T09:52:15.504Z,95908.28
2023-01-19T09:53:21.542Z,95909.44
2023-01-19T09:54:29.288Z,95909.63
2023-01-19T09:55:31.183Z,95911.06
2023-01-19T09:56:33.211Z,95910.06
2023-01-19T09:57:35.289Z,95910.88
2023-01-19T09:58:37.100Z,95902.72
2023-01-19T09:59:39.264Z,95913.97
2023-01-19T10:00:43.316Z,95906.94
2023-01-19T10:01:54.338Z,95908.53
2023-01-19T10:03:21.029Z,95915.28
2023-01-19T10:04:28.999Z,95915.16
2023-01-19T10:05:39.111Z,95915.69
2023-01-19T10:06:41.644Z,95920.38
2023-01-19T10:08:03.918Z,95927.09
2023-01-19T10:09:11.875Z,95923.09
2023-01-19T10:10:20.039Z,95920.00
2023-01-19T10:11:51.617Z,95920.84
2023-01-19T10:13:00.528Z,95920.69
2023-01-19T10:14:04.772Z,95922.31
2023-01-19T10:15:20.815Z,95917.16
2023-01-19T10:16:32.012Z,95917.97
2023-01-19T10:17:34.242Z,95920.38
2023-01-19T10:18:46.117Z,95907.66
2023-01-19T10:19:50.288Z,95919.91
2023-01-19T10:21:01.727Z,95916.69
2023-01-19T10:22:20.455Z,95923.31
2023-01-19T10:23:28.288Z,95920.09
2023-01-19T10:24:38.557Z,95924.47
2023-01-19T10:25:40.843Z,95920.47
2023-01-19T10:26:47.871Z,95922.22
2023-01-19T10:27:49.769Z,95923.50
2023-01-19T10:29:02.088Z,95927.88
2023-01-19T10:30:04.502Z,95923.72
2023-01-19T10:31:07.806Z,95928.66
2023-01-19T10:32:20.153Z,95929.00
2023-01-19T10:33:22.168Z,95929.81
2023-01-19T10:34:24.376Z,95929.97
2023-01-19T10:35:26.332Z,95932.88
2023-01-19T10:36:40.217Z,95926.94
2023-01-19T10:37:42.491Z,95925.34
2023-01-19T10:38:44.533Z,95926.81
2023-01-19T10:39:47.578Z,95935.34
2023-01-19T10:40:58.156Z,95940.81
2023-01-19T10:42:02.816Z,95938.56
2023-01-19T10:43:24.312Z,95931.34
2023-01-19T10:44:28.067Z,95936.34
2023-01-19T10:45:31.767Z,95933.94
2023-01-19T10:46:33.490Z,95930.91
2023-01-19T10:47:36.768Z,95933.16
2023-01-19T10:48:40.519Z,95939.56
2023-01-19T10:49:43.042Z,95927.00
2023-01-19T10:50:44.833Z,95934.91
2023-01-19T10:51:47.514Z,95941.63
2023-01-19T10:52:51.204Z,95941.63
2023-01-19T10:53:54.923Z,95936.97
2023-01-19T10:54:57.078Z,95940.47
2023-01-19T10:56:12.683Z,95936.16
2023-01-19T10:57:21.012Z,95941.16
2023-01-19T10:58:27.899Z,95944.97
2023-01-19T10:59:31.137Z,95935.34
2023-01-19T11:00:42.519Z,95938.53
2023-01-19T11:01:44.800Z,95936.84
2023-01-19T11:02:50.486Z,95935.38
2023-01-19T11:03:53.706Z,95942.75
2023-01-19T11:05:00.112Z,95943.06
2023-01-19T11:06:15.143Z,95938.22
2023-01-19T11:07:33.688Z,95937.09
2023-01-19T11:08:35.497Z,95938.34
2023-01-19T11:09:37.360Z,95935.63
2023-01-19T11:10:39.182Z,95935.28
2023-01-19T11:11:42.439Z,95938.50
2023-01-19T11:13:04.874Z,95932.88
2023-01-19T11:14:18.693Z,95939.81
2023-01-19T11:15:25.138Z,95939.44
2023-01-19T11:16:29.091Z,95940.09
2023-01-19T11:17:31.022Z,95944.44
2023-01-19T11:18:40.555Z,95937.66
2023-01-19T11:19:42.580Z,95942.50
2023-01-19T11:20:54.670Z,95939.41
2023-01-19T11:22:21.889Z,95944.84
2023-01-19T11:23:26.585Z,95949.13
2023-01-19T11:24:30.360Z,95945.78
2023-01-19T11:25:33.640Z,95947.53
2023-01-19T11:26:41.102Z,95948.50
2023-01-19T11:27:49.316Z,95943.56
2023-01-19T11:28:54.101Z,95938.84
2023-01-19T11:30:10.575Z,95943.19
2023-01-19T11:31:15.646Z,95938.41
2023-01-19T11:32:22.583Z,95938.72
2023-01-19T11:33:32.801Z,95932.00
2023-01-19T11:34:37.674Z,95931.31
2023-01-19T11:35:40.768Z,95938.22
2023-01-19T11:36:55.145Z,95942.88
2023-01-19T11:38:07.191Z,95936.13
2023-01-19T11:39:25.702Z,95939.78
2023-01-19T11:40:27.578Z,95935.09
2023-01-19T11:41:31.155Z,95940.09
2023-01-19T11:42:34.061Z,95932.38
2023-01-19T11:43:48.388Z,95940.88
2023-01-19T11:44:59.736Z,95934.47
2023-01-19T11:46:02.232Z,95938.63
2023-01-19T11:47:06.409Z,95937.53
2023-01-19T11:48:15.430Z,95938.94
2023-01-19T11:49:37.678Z,95937.78
2023-01-19T11:50:41.927Z,95937.00
2023-01-19T11:51:56.477Z,95939.41
2023-01-19T11:53:01.615Z,95936.00
2023-01-19T11:54:07.955Z,95941.34
2023-01-19T11:55:18.614Z,95937.94
2023-01-19T11:56:23.440Z,95937.00
2023-01-19T11:57:26.121Z,95936.22
2023-01-19T11:58:27.896Z,95936.22
2023-01-19T11:59:29.750Z,95944.09
2023-01-19T12:00:36.694Z,95943.91
2023-01-19T12:01:42.769Z,95941.34
2023-01-19T12:02:47.118Z,95944.72
2023-01-19T12:03:55.443Z,95941.50
2023-01-19T12:05:00.793Z,95939.47
2023-01-19T12:06:08.165Z,95938.47
2023-01-19T12:07:12.892Z,95939.94
2023-01-19T12:08:37.862Z,95936.59
2023-01-19T12:09:43.643Z,95937.84
2023-01-19T12:10:47.615Z,95939.25
2023-01-19T12:11:53.491Z,95934.59
2023-01-19T12:12:56.810Z,95936.84
2023-01-19T12:14:00.421Z,95941.97
2023-01-19T12:15:08.093Z,95941.00
2023-01-19T12:16:09.933Z,95940.03
2023-01-19T12:17:17.079Z,95935.53
2023-01-19T12:18:21.992Z,95932.94
2023-01-19T12:19:28.017Z,95942.25
2023-01-19T12:20:40.562Z,95934.84
2023-01-19T12:21:43.177Z,95938.66
2023-01-19T12:22:51.067Z,95932.38
2023-01-19T12:24:01.523Z,95933.00
2023-01-19T12:25:06.345Z,95933.16
2023-01-19T12:26:30.077Z,95937.97
2023-01-19T12:27:34.993Z,95936.81
2023-01-19T12:28:41.877Z,95931.38
2023-01-19T12:29:44.595Z,95932.38
2023-01-19T12:30:46.515Z,95932.69
2023-01-19T12:32:06.733Z,95931.13
2023-01-19T12:33:26.739Z,95936.59
2023-01-19T12:34:31.600Z,95938.88
2023-01-19T12:35:52.481Z,95946.44
2023-01-19T12:36:54.917Z,95938.38